Terminal Aerodrome Forecast
Issued by NWS Binghamton, NY

Home | Current Version | Previous Version | Text Only | Print | Product List | Glossary On
Versions: 1 2 3 4 5 6 7 8 9 10 11 12 13 14 15 16 17 18
000
FTUS41 KBGM 181736
TAFSYR
TAF
KSYR 181736Z 1818/1918 12008KT 4SM -FZRASN BR OVC025
      TEMPO 1820/1822 P6SM -RA
     FM182200 15008KT P6SM -RA OVC025
     FM190300 22008KT 5SM BR OVC012
      TEMPO 1909/1912 OVC008
     FM191300 23010G20KT P6SM OVC025=

USA.gov is the U.S. government's official web portal to all federal, state and local government web resources and services.